]idnight River — HP7399 — position and weather

sailwx.info

Track history (hours):
 
Tides and Currents Weather Stations Pressure Air Temp Water Temp Dewpoint Dewpoint Depression Visibility Wind Speed Wind Dir Waves Ship Positions

]idnight River

Last reported at 2014-Jul-22 12:11 UTC. Time now 2014-Jul-23 01:12 UTC.
Position N 17°49' W 063°03'.

MMSI: 352319000.

Date/timePositionNaut miles runAvg speedWind from/ knotsBaromVisibWave heightAir tempDewpointWater temp
2014-Jul-22 12:11N 17°49' W 063°03'7 8.5
2014-Jul-22 11:22N 17°55' W 063°06'9 9.3
2014-Jul-22 10:21N 18°04' W 063°10'5 5.8
2014-Jul-22 09:32N 18°05' W 063°05'0 0.0
2014-Jul-22 08:32N 18°05' W 063°05'0 0.0
2014-Jul-22 07:32N 18°05' W 063°05'0 0.0
2014-Jul-22 06:32N 18°05' W 063°05'0 0.0
2014-Jul-22 05:31N 18°05' W 063°05'0 0.0
2014-Jul-22 04:33N 18°05' W 063°05'0 0.0
2014-Jul-22 03:33N 18°05' W 063°05'0 0.0
2014-Jul-22 02:32N 18°05' W 063°05'0 0.0
2014-Jul-22 01:33N 18°05' W 063°05'0 0.0
2014-Jul-22 00:33N 18°05' W 063°05'0 0.0
2014-Jul-21 23:31N 18°05' W 063°05'0 0.0
2014-Jul-21 22:31N 18°05' W 063°05'0 0.0
2014-Jul-21 21:33N 18°05' W 063°05'5 4.7
2014-Jul-21 20:32N 18°06' W 063°10'2 9.0
2014-Jul-21 20:16N 18°06' W 063°13'7 9.2
2014-Jul-21 19:33N 18°07' W 063°19'9 8.7
2014-Jul-21 18:32N 18°08' W 063°29'1 0.0
2014-Jul-20 03:33N 18°08' W 063°30'10 9.8
2014-Jul-20 02:31N 18°07' W 063°19'11 9.8
2014-Jul-20 01:21N 18°05' W 063°07'2 2.4
2014-Jul-20 00:33N 18°05' W 063°05'0 0.0
2014-Jul-19 23:29N 18°05' W 063°05'0 0.0
2014-Jul-19 22:30N 18°05' W 063°05'0 0.0
2014-Jul-19 21:32N 18°05' W 063°05'0 0.0
2014-Jul-19 20:29N 18°05' W 063°05'0 0.0
2014-Jul-19 19:28N 18°05' W 063°05'0 0.0
2014-Jul-19 18:32N 18°05' W 063°05'0 0.0
2014-Jul-19 17:33N 18°05' W 063°05'0 0.0
2014-Jul-19 16:32N 18°05' W 063°05'5 0.6
2014-Jul-19 08:29N 18°00' W 063°04'6 5.9
2014-Jul-19 07:26N 18°05' W 063°08'3 2.9
2014-Jul-19 06:31N 18°05' W 063°05'0 0.0
2014-Jul-19 05:23N 18°05' W 063°05'0 0.0
2014-Jul-19 04:07N 18°05' W 063°05'0 0.0
2014-Jul-19 03:33N 18°05' W 063°05'0 0.0
2014-Jul-19 02:06N 18°05' W 063°05'0 0.0
2014-Jul-19 01:32N 18°05' W 063°05'0 0.0
2014-Jul-19 00:31N 18°05' W 063°05'0 0.0
2014-Jul-18 23:25N 18°05' W 063°05'0 0.0
2014-Jul-18 22:32N 18°05' W 063°05'0 0.0
2014-Jul-18 21:31N 18°05' W 063°05'0 0.0
2014-Jul-18 20:30N 18°05' W 063°05'0 0.0
2014-Jul-18 19:33N 18°05' W 063°05'0 0.0
2014-Jul-18 18:32N 18°05' W 063°05'0 0.0
2014-Jul-18 17:31N 18°05' W 063°05'0 0.0
2014-Jul-18 16:31N 18°05' W 063°05'0 0.0
2014-Jul-18 15:32N 18°05' W 063°05'0 0.0
2014-Jul-18 14:31N 18°05' W 063°05'0 0.0
2014-Jul-18 13:33N 18°05' W 063°05'0 0.0
2014-Jul-18 12:33N 18°05' W 063°05'0 0.0
2014-Jul-18 11:32N 18°05' W 063°05'0 0.0
2014-Jul-18 10:31N 18°05' W 063°05'0 0.0
2014-Jul-18 09:33N 18°05' W 063°05'0 0.0
2014-Jul-18 08:30N 18°05' W 063°05'0 0.0
2014-Jul-18 07:29N 18°05' W 063°05'0 0.0
2014-Jul-18 06:18N 18°05' W 063°05'0 0.0
2014-Jul-18 05:30N 18°05' W 063°05'0 0.0
2014-Jul-18 04:28N 18°05' W 063°05'0 0.0
2014-Jul-18 03:25N 18°05' W 063°05'0 0.0
2014-Jul-18 02:26N 18°05' W 063°05'0 0.0
2014-Jul-18 01:31N 18°05' W 063°05'0 0.0
2014-Jul-18 00:30N 18°05' W 063°05'0 0.0
2014-Jul-17 23:32N 18°05' W 063°05'0 0.0
2014-Jul-17 22:33N 18°05' W 063°05'0 0.0
2014-Jul-17 21:32N 18°05' W 063°05'0 0.0
2014-Jul-17 20:33N 18°05' W 063°05'0 0.0
2014-Jul-17 19:32N 18°05' W 063°05'0 0.0
2014-Jul-17 18:31N 18°05' W 063°05'0 0.0
2014-Jul-17 17:26N 18°05' W 063°05'0 0.0
2014-Jul-17 16:32N 18°05' W 063°05'0 0.0
2014-Jul-17 15:32N 18°05' W 063°05'0 0.0
2014-Jul-17 02:03N 18°05' W 063°05'0 0.0
2014-Jul-17 01:32N 18°05' W 063°05'0 0.0
2014-Jul-17 00:24N 18°05' W 063°05'1 1.5
2014-Jul-16 23:29N 18°05' W 063°07'9 8.4
2014-Jul-16 22:26N 17°57' W 063°11'9 9.8
2014-Jul-16 21:30N 17°49' W 063°13'7 0.5
2014-Jul-16 08:31N 17°49' W 063°06'10 9.1
2014-Jul-16 07:26N 17°59' W 063°09'7 6.0
2014-Jul-16 06:17N 18°05' W 063°05'0 0.2
2014-Jul-16 05:23N 18°05' W 063°05'0 0.0
2014-Jul-16 04:31N 18°05' W 063°05'3 3.0
2014-Jul-16 03:31N 18°05' W 063°08'8 7.6
2014-Jul-16 02:30N 17°57' W 063°07'  
Track history (hours):
 
Tides and Currents Weather Stations Pressure Air Temp Water Temp Dewpoint Dewpoint Depression Visibility Wind Speed Wind Dir Waves Ship Positions

]idnight River

Last reported at 2014-Jul-22 12:11 UTC. Time now 2014-Jul-23 01:12 UTC.
Position N 17°49' W 063°03'.

MMSI: 352319000.

Date/timePositionNaut miles runAvg speedWind from/ knotsBaromVisibWave heightAir tempDewpointWater temp
2014-Jul-22 12:11N 17°49' W 063°03'7 8.5
2014-Jul-22 11:22N 17°55' W 063°06'9 9.3
2014-Jul-22 10:21N 18°04' W 063°10'5 5.8
2014-Jul-22 09:32N 18°05' W 063°05'0 0.0
2014-Jul-22 08:32N 18°05' W 063°05'0 0.0
2014-Jul-22 07:32N 18°05' W 063°05'0 0.0
2014-Jul-22 06:32N 18°05' W 063°05'0 0.0
2014-Jul-22 05:31N 18°05' W 063°05'0 0.0
2014-Jul-22 04:33N 18°05' W 063°05'0 0.0
2014-Jul-22 03:33N 18°05' W 063°05'0 0.0
2014-Jul-22 02:32N 18°05' W 063°05'0 0.0
2014-Jul-22 01:33N 18°05' W 063°05'0 0.0
2014-Jul-22 00:33N 18°05' W 063°05'0 0.0
2014-Jul-21 23:31N 18°05' W 063°05'0 0.0
2014-Jul-21 22:31N 18°05' W 063°05'0 0.0
2014-Jul-21 21:33N 18°05' W 063°05'5 4.7
2014-Jul-21 20:32N 18°06' W 063°10'2 9.0
2014-Jul-21 20:16N 18°06' W 063°13'7 9.2
2014-Jul-21 19:33N 18°07' W 063°19'9 8.7
2014-Jul-21 18:32N 18°08' W 063°29'1 0.0
2014-Jul-20 03:33N 18°08' W 063°30'10 9.8
2014-Jul-20 02:31N 18°07' W 063°19'11 9.8
2014-Jul-20 01:21N 18°05' W 063°07'2 2.4
2014-Jul-20 00:33N 18°05' W 063°05'0 0.0
2014-Jul-19 23:29N 18°05' W 063°05'0 0.0
2014-Jul-19 22:30N 18°05' W 063°05'0 0.0
2014-Jul-19 21:32N 18°05' W 063°05'0 0.0
2014-Jul-19 20:29N 18°05' W 063°05'0 0.0
2014-Jul-19 19:28N 18°05' W 063°05'0 0.0
2014-Jul-19 18:32N 18°05' W 063°05'0 0.0
2014-Jul-19 17:33N 18°05' W 063°05'0 0.0
2014-Jul-19 16:32N 18°05' W 063°05'5 0.6
2014-Jul-19 08:29N 18°00' W 063°04'6 5.9
2014-Jul-19 07:26N 18°05' W 063°08'3 2.9
2014-Jul-19 06:31N 18°05' W 063°05'0 0.0
2014-Jul-19 05:23N 18°05' W 063°05'0 0.0
2014-Jul-19 04:07N 18°05' W 063°05'0 0.0
2014-Jul-19 03:33N 18°05' W 063°05'0 0.0
2014-Jul-19 02:06N 18°05' W 063°05'0 0.0
2014-Jul-19 01:32N 18°05' W 063°05'0 0.0
2014-Jul-19 00:31N 18°05' W 063°05'0 0.0
2014-Jul-18 23:25N 18°05' W 063°05'0 0.0
2014-Jul-18 22:32N 18°05' W 063°05'0 0.0
2014-Jul-18 21:31N 18°05' W 063°05'0 0.0
2014-Jul-18 20:30N 18°05' W 063°05'0 0.0
2014-Jul-18 19:33N 18°05' W 063°05'0 0.0
2014-Jul-18 18:32N 18°05' W 063°05'0 0.0
2014-Jul-18 17:31N 18°05' W 063°05'0 0.0
2014-Jul-18 16:31N 18°05' W 063°05'0 0.0
2014-Jul-18 15:32N 18°05' W 063°05'0 0.0
2014-Jul-18 14:31N 18°05' W 063°05'0 0.0
2014-Jul-18 13:33N 18°05' W 063°05'0 0.0
2014-Jul-18 12:33N 18°05' W 063°05'0 0.0
2014-Jul-18 11:32N 18°05' W 063°05'0 0.0
2014-Jul-18 10:31N 18°05' W 063°05'0 0.0
2014-Jul-18 09:33N 18°05' W 063°05'0 0.0
2014-Jul-18 08:30N 18°05' W 063°05'0 0.0
2014-Jul-18 07:29N 18°05' W 063°05'0 0.0
2014-Jul-18 06:18N 18°05' W 063°05'0 0.0
2014-Jul-18 05:30N 18°05' W 063°05'0 0.0
2014-Jul-18 04:28N 18°05' W 063°05'0 0.0
2014-Jul-18 03:25N 18°05' W 063°05'0 0.0
2014-Jul-18 02:26N 18°05' W 063°05'0 0.0
2014-Jul-18 01:31N 18°05' W 063°05'0 0.0
2014-Jul-18 00:30N 18°05' W 063°05'0 0.0
2014-Jul-17 23:32N 18°05' W 063°05'0 0.0
2014-Jul-17 22:33N 18°05' W 063°05'0 0.0
2014-Jul-17 21:32N 18°05' W 063°05'0 0.0
2014-Jul-17 20:33N 18°05' W 063°05'0 0.0
2014-Jul-17 19:32N 18°05' W 063°05'0 0.0
2014-Jul-17 18:31N 18°05' W 063°05'0 0.0
2014-Jul-17 17:26N 18°05' W 063°05'0 0.0
2014-Jul-17 16:32N 18°05' W 063°05'0 0.0
2014-Jul-17 15:32N 18°05' W 063°05'0 0.0
2014-Jul-17 02:03N 18°05' W 063°05'0 0.0
2014-Jul-17 01:32N 18°05' W 063°05'0 0.0
2014-Jul-17 00:24N 18°05' W 063°05'1 1.5
2014-Jul-16 23:29N 18°05' W 063°07'9 8.4
2014-Jul-16 22:26N 17°57' W 063°11'9 9.8
2014-Jul-16 21:30N 17°49' W 063°13'7 0.5
2014-Jul-16 08:31N 17°49' W 063°06'10 9.1
2014-Jul-16 07:26N 17°59' W 063°09'7 6.0
2014-Jul-16 06:17N 18°05' W 063°05'0 0.2
2014-Jul-16 05:23N 18°05' W 063°05'0 0.0
2014-Jul-16 04:31N 18°05' W 063°05'3 3.0
2014-Jul-16 03:31N 18°05' W 063°08'8 7.6
2014-Jul-16 02:30N 17°57' W 063°07'  

Dump ship's entire track history